createdAt,value
2022-08-31T00:00:39.281Z,101210.61
2022-08-31T00:03:41.657Z,101209.63
2022-08-31T00:06:23.655Z,101205.06
2022-08-31T00:09:07.599Z,101209.45
2022-08-31T00:11:49.597Z,101216.83
2022-08-31T00:14:33.437Z,101217.81
2022-08-31T00:17:16.869Z,101221.58
2022-08-31T00:19:58.704Z,101219.83
2022-08-31T00:22:40.806Z,101217.87
2022-08-31T00:25:22.761Z,101217.97
2022-08-31T00:28:05.606Z,101217.98
2022-08-31T00:30:49.465Z,101219.55
2022-08-31T00:33:31.565Z,101217.13
2022-08-31T00:36:14.484Z,101217.59
2022-08-31T00:38:57.257Z,101222.40
2022-08-31T00:41:39.869Z,101221.63
2022-08-31T00:44:22.222Z,101221.49
2022-08-31T00:47:04.892Z,101222.70
2022-08-31T00:49:51.440Z,101220.02
2022-08-31T00:52:38.166Z,101220.83
2022-08-31T00:55:23.024Z,101221.22
2022-08-31T00:58:09.277Z,101224.19
2022-08-31T01:00:52.203Z,101225.98
2022-08-31T01:03:34.228Z,101224.84
2022-08-31T01:06:18.280Z,101225.66
2022-08-31T01:09:02.959Z,101221.08
2022-08-31T01:11:46.221Z,101218.13
2022-08-31T01:14:28.161Z,101221.42
2022-08-31T01:17:10.376Z,101216.38
2022-08-31T01:20:11.880Z,101216.16
2022-08-31T01:23:22.137Z,101220.10
2022-08-31T01:26:06.490Z,101216.65
2022-08-31T01:28:50.947Z,101222.80
2022-08-31T01:31:44.330Z,101223.77
2022-08-31T01:34:26.615Z,101223.45
2022-08-31T01:37:08.818Z,101225.19
2022-08-31T01:39:51.738Z,101224.50
2022-08-31T01:42:34.352Z,101219.89
2022-08-31T01:45:17.626Z,101216.30
2022-08-31T01:48:00.194Z,101219.39
2022-08-31T01:50:42.345Z,101221.15
2022-08-31T01:53:25.619Z,101219.09
2022-08-31T01:56:16.265Z,101224.02
2022-08-31T01:58:59.770Z,101220.02
2022-08-31T02:02:02.952Z,101225.17
2022-08-31T02:04:45.052Z,101227.79
2022-08-31T02:07:27.305Z,101226.46
2022-08-31T02:10:10.172Z,101227.70
2022-08-31T02:12:52.173Z,101230.16
2022-08-31T02:15:44.408Z,101231.07
2022-08-31T02:18:27.533Z,101230.67
2022-08-31T02:21:10.555Z,101230.58
2022-08-31T02:23:53.680Z,101231.34
2022-08-31T02:26:35.781Z,101228.88
2022-08-31T02:29:18.802Z,101231.14
2022-08-31T02:32:00.903Z,101229.88
2022-08-31T02:34:42.901Z,101233.14
2022-08-31T02:37:25.000Z,101227.36
2022-08-31T02:40:11.943Z,101224.55
2022-08-31T02:42:55.858Z,101222.75
2022-08-31T02:45:40.007Z,101223.73
2022-08-31T02:48:26.355Z,101218.70
2022-08-31T02:51:10.864Z,101213.17
2022-08-31T02:53:52.964Z,101208.23
2022-08-31T02:56:34.907Z,101209.13
2022-08-31T02:59:17.882Z,101211.45
2022-08-31T03:02:00.209Z,101207.36
2022-08-31T03:04:42.390Z,101208.09
2022-08-31T03:07:24.287Z,101211.29
2022-08-31T03:10:09.238Z,101214.45
2022-08-31T03:12:53.094Z,101213.85
2022-08-31T03:15:35.127Z,101219.59
2022-08-31T03:18:18.217Z,101218.75
2022-08-31T03:21:00.425Z,101218.95
2022-08-31T03:23:42.418Z,101219.84
2022-08-31T03:26:24.724Z,101224.33
2022-08-31T03:29:07.473Z,101226.49
2022-08-31T03:32:10.025Z,101227.25
2022-08-31T03:34:58.237Z,101226.49
2022-08-31T03:37:40.163Z,101227.16
2022-08-31T03:40:22.504Z,101229.02
2022-08-31T03:43:05.386Z,101224.56
2022-08-31T03:45:49.650Z,101224.73
2022-08-31T03:48:32.453Z,101222.27
2022-08-31T03:51:16.604Z,101225.26
2022-08-31T03:53:58.601Z,101224.16
2022-08-31T03:56:40.972Z,101226.02
2022-08-31T03:59:22.904Z,101229.83
2022-08-31T04:02:40.673Z,101232.27
2022-08-31T04:05:44.276Z,101233.17
2022-08-31T04:08:29.109Z,101236.84
2022-08-31T04:11:37.195Z,101238.59
2022-08-31T04:14:47.021Z,101237.30
2022-08-31T04:18:01.325Z,101236.55
2022-08-31T04:21:02.984Z,101238.63
2022-08-31T04:23:44.880Z,101238.56
2022-08-31T04:26:33.739Z,101243.08
2022-08-31T04:29:15.941Z,101245.45
2022-08-31T04:31:59.373Z,101244.02
2022-08-31T04:34:41.297Z,101246.17
2022-08-31T04:37:23.477Z,101246.94
2022-08-31T04:40:07.440Z,101251.32
2022-08-31T04:42:49.722Z,101253.38
2022-08-31T04:45:33.384Z,101250.58
2022-08-31T04:48:15.459Z,101247.25
2022-08-31T04:51:05.751Z,101249.20
2022-08-31T04:53:48.616Z,101252.14
2022-08-31T04:56:33.640Z,101250.92
2022-08-31T04:59:18.132Z,101243.42
2022-08-31T05:02:16.809Z,101247.14
2022-08-31T05:05:14.448Z,101246.31
2022-08-31T05:07:58.086Z,101249.80
2022-08-31T05:10:41.518Z,101247.18
2022-08-31T05:13:24.469Z,101247.59
2022-08-31T05:16:09.049Z,101245.79
2022-08-31T05:18:51.918Z,101249.10
2022-08-31T05:21:37.496Z,101250.31
2022-08-31T05:24:22.901Z,101250.23
2022-08-31T05:27:05.113Z,101247.53
2022-08-31T05:29:48.255Z,101257.41
2022-08-31T05:32:50.782Z,101257.67
2022-08-31T05:35:35.389Z,101261.55
2022-08-31T05:38:17.447Z,101266.93
2022-08-31T05:40:59.338Z,101268.59
2022-08-31T05:43:41.130Z,101266.36
2022-08-31T05:46:23.497Z,101258.20
2022-08-31T05:49:07.992Z,101256.73
2022-08-31T05:51:50.609Z,101252.55
2022-08-31T05:54:37.009Z,101259.61
2022-08-31T05:57:21.457Z,101261.42
2022-08-31T06:00:09.623Z,101267.18
2022-08-31T06:02:54.777Z,101268.38
2022-08-31T06:05:36.832Z,101274.65
2022-08-31T06:08:20.049Z,101272.86
2022-08-31T06:11:14.498Z,101271.70
2022-08-31T06:13:59.419Z,101277.20
2022-08-31T06:16:44.178Z,101277.93
2022-08-31T06:19:27.655Z,101282.46
2022-08-31T06:22:10.165Z,101282.36
2022-08-31T06:24:52.777Z,101282.48
2022-08-31T06:27:38.993Z,101284.14
2022-08-31T06:30:23.400Z,101290.96
2022-08-31T06:33:09.320Z,101290.03
2022-08-31T06:36:09.135Z,101291.73
2022-08-31T06:39:07.414Z,101290.31
2022-08-31T06:42:00.730Z,101287.58
2022-08-31T06:44:49.844Z,101287.86
2022-08-31T06:47:33.889Z,101292.21
2022-08-31T06:50:16.137Z,101290.89
2022-08-31T06:52:58.092Z,101295.14
2022-08-31T06:55:53.523Z,101303.11
2022-08-31T06:58:54.650Z,101304.02
2022-08-31T07:01:54.399Z,101306.16
2022-08-31T07:04:46.601Z,101307.33
2022-08-31T07:07:28.549Z,101302.90
2022-08-31T07:10:11.009Z,101301.52
2022-08-31T07:12:52.903Z,101300.16
2022-08-31T07:15:34.798Z,101301.56
2022-08-31T07:18:17.718Z,101300.98
2022-08-31T07:21:17.345Z,101301.55
2022-08-31T07:24:02.399Z,101303.46
2022-08-31T07:26:50.132Z,101304.14
2022-08-31T07:29:41.022Z,101304.95
2022-08-31T07:32:26.316Z,101299.70
2022-08-31T07:35:09.439Z,101306.97
2022-08-31T07:38:29.944Z,101309.16
2022-08-31T07:41:31.188Z,101313.27
2022-08-31T07:44:15.132Z,101316.93
2022-08-31T07:46:57.744Z,101317.56
2022-08-31T07:49:44.760Z,101318.45
2022-08-31T07:52:51.848Z,101318.90
2022-08-31T07:55:56.987Z,101323.15
2022-08-31T07:59:07.772Z,101320.44
2022-08-31T08:01:56.194Z,101319.95
2022-08-31T08:04:44.455Z,101319.02
2022-08-31T08:08:00.378Z,101317.30
2022-08-31T08:11:02.313Z,101319.73
2022-08-31T08:13:56.087Z,101321.90
2022-08-31T08:16:58.667Z,101320.86
2022-08-31T08:19:50.496Z,101326.44
2022-08-31T08:22:51.556Z,101325.48
2022-08-31T08:25:47.567Z,101328.11
2022-08-31T08:28:42.066Z,101325.10
2022-08-31T08:31:29.419Z,101322.25
2022-08-31T08:34:11.791Z,101319.73
2022-08-31T08:36:53.787Z,101316.04
2022-08-31T08:39:35.834Z,101315.75
2022-08-31T08:42:27.922Z,101318.31
2022-08-31T08:45:11.317Z,101323.39
2022-08-31T08:47:55.340Z,101322.42
2022-08-31T08:50:40.675Z,101321.02
2022-08-31T08:53:26.096Z,101324.18
2022-08-31T08:56:32.839Z,101321.21
2022-08-31T08:59:19.827Z,101321.95
2022-08-31T09:02:07.100Z,101319.34
2022-08-31T09:05:14.562Z,101322.36
2022-08-31T09:08:23.756Z,101319.29
2022-08-31T09:11:18.605Z,101321.97
2022-08-31T09:14:26.813Z,101322.21
2022-08-31T09:17:37.343Z,101322.79
2022-08-31T09:20:19.998Z,101319.90
2022-08-31T09:23:07.315Z,101314.57
2022-08-31T09:25:52.694Z,101316.06
2022-08-31T09:28:57.319Z,101317.86
2022-08-31T09:31:42.412Z,101315.13
2022-08-31T09:34:41.715Z,101314.71
2022-08-31T09:37:27.020Z,101311.28
2022-08-31T09:40:23.384Z,101310.48
2022-08-31T09:43:16.465Z,101302.41
2022-08-31T09:46:07.763Z,101300.30
2022-08-31T09:48:59.050Z,101298.24
2022-08-31T09:51:40.889Z,101297.27
2022-08-31T09:54:47.161Z,101303.55
2022-08-31T09:57:56.918Z,101298.31
2022-08-31T10:00:42.834Z,101301.94
2022-08-31T10:03:31.903Z,101305.71
2022-08-31T10:06:38.022Z,101306.36
2022-08-31T10:09:29.937Z,101307.11
2022-08-31T10:12:21.187Z,101302.45
2022-08-31T10:15:24.966Z,101298.06
2022-08-31T10:18:41.106Z,101292.16
2022-08-31T10:21:56.372Z,101292.27
2022-08-31T10:24:56.912Z,101292.83
2022-08-31T10:27:43.204Z,101286.20
2022-08-31T10:30:32.152Z,101284.20
2022-08-31T10:33:19.868Z,101288.11
2022-08-31T10:36:05.195Z,101290.95
2022-08-31T10:38:51.353Z,101285.98
2022-08-31T10:41:38.963Z,101280.45
2022-08-31T10:44:39.513Z,101281.23
2022-08-31T10:47:33.737Z,101278.40
2022-08-31T10:50:46.722Z,101277.52
2022-08-31T10:53:54.423Z,101273.68
2022-08-31T10:56:54.239Z,101270.37
2022-08-31T11:00:01.633Z,101267.89
2022-08-31T11:03:11.038Z,101261.33
2022-08-31T11:06:01.132Z,101262.61
2022-08-31T11:08:58.314Z,101258.16
2022-08-31T11:11:45.695Z,101263.11
2022-08-31T11:14:50.068Z,101262.75
2022-08-31T11:17:57.764Z,101262.83
2022-08-31T11:21:04.438Z,101266.76
2022-08-31T11:23:55.858Z,101264.54
2022-08-31T11:26:51.085Z,101265.95
2022-08-31T11:29:46.420Z,101263.17
2022-08-31T11:32:49.797Z,101267.80
2022-08-31T11:36:07.308Z,101259.56
2022-08-31T11:39:33.897Z,101261.64
2022-08-31T11:42:27.647Z,101258.86
2022-08-31T11:45:31.590Z,101260.52
2022-08-31T11:48:55.959Z,101255.06
2022-08-31T11:51:41.926Z,101250.55
2022-08-31T11:54:29.373Z,101250.20
2022-08-31T11:57:16.285Z,101250.31
2022-08-31T12:00:00.576Z,101248.89
2022-08-31T12:02:52.348Z,101245.73
2022-08-31T12:05:55.217Z,101240.98
2022-08-31T12:08:52.626Z,101241.79
2022-08-31T12:11:53.438Z,101242.70
2022-08-31T12:15:19.697Z,101237.21
2022-08-31T12:18:21.152Z,101233.39
2022-08-31T12:21:47.816Z,101227.52
2022-08-31T12:24:59.893Z,101228.99
2022-08-31T12:28:08.311Z,101225.89
2022-08-31T12:30:55.169Z,101227.90
2022-08-31T12:33:46.961Z,101224.64
2022-08-31T12:36:34.265Z,101225.61
2022-08-31T12:39:21.625Z,101221.92
2022-08-31T12:42:05.919Z,101222.67
2022-08-31T12:44:52.593Z,101220.84
2022-08-31T12:47:46.385Z,101225.20
2022-08-31T12:51:07.926Z,101226.31
2022-08-31T12:54:27.299Z,101225.02
2022-08-31T12:57:35.424Z,101221.98
2022-08-31T13:00:27.034Z,101219.91
2022-08-31T13:03:26.132Z,101221.52
2022-08-31T13:06:14.253Z,101214.48
2022-08-31T13:08:59.550Z,101213.89
2022-08-31T13:11:44.801Z,101214.06
2022-08-31T13:14:30.713Z,101205.38
2022-08-31T13:17:18.259Z,101208.55
2022-08-31T13:20:01.676Z,101209.01
2022-08-31T13:22:57.600Z,101210.77
2022-08-31T13:25:39.750Z,101213.09
2022-08-31T13:28:26.298Z,101212.83
2022-08-31T13:31:11.976Z,101209.11
2022-08-31T13:34:01.873Z,101214.48
2022-08-31T13:36:53.797Z,101212.84
2022-08-31T13:39:36.825Z,101213.67
2022-08-31T13:42:32.299Z,101209.20
2022-08-31T13:45:26.785Z,101210.52
2022-08-31T13:48:20.197Z,101209.29
2022-08-31T13:51:13.765Z,101208.12
2022-08-31T13:53:55.569Z,101209.02
2022-08-31T13:57:02.133Z,101206.54
2022-08-31T13:59:44.131Z,101205.52
2022-08-31T14:02:36.692Z,101203.34
2022-08-31T14:05:36.462Z,101200.57
2022-08-31T14:08:25.469Z,101196.77
2022-08-31T14:11:16.102Z,101192.35
2022-08-31T14:14:16.074Z,101191.42
2022-08-31T14:17:08.580Z,101192.59
2022-08-31T14:19:50.720Z,101189.10
2022-08-31T14:22:35.520Z,101190.02
2022-08-31T14:25:22.324Z,101185.45
2022-08-31T14:28:05.570Z,101186.98
2022-08-31T14:30:47.732Z,101184.58
2022-08-31T14:33:29.700Z,101182.91
2022-08-31T14:36:14.997Z,101181.88
2022-08-31T14:38:59.148Z,101179.72
2022-08-31T14:41:41.045Z,101179.92
2022-08-31T14:44:30.208Z,101184.81
2022-08-31T14:47:12.720Z,101178.17
2022-08-31T14:49:57.012Z,101173.58
2022-08-31T14:52:52.919Z,101174.51
2022-08-31T14:55:34.891Z,101169.23
2022-08-31T14:58:17.861Z,101172.55
2022-08-31T15:01:02.880Z,101177.55
2022-08-31T15:03:45.390Z,101177.73
2022-08-31T15:06:27.742Z,101176.61
2022-08-31T15:09:10.309Z,101170.83
2022-08-31T15:11:52.511Z,101172.73
2022-08-31T15:14:38.196Z,101170.44
2022-08-31T15:17:24.915Z,101172.80
2022-08-31T15:20:10.430Z,101177.14
2022-08-31T15:22:52.499Z,101173.32
2022-08-31T15:25:35.099Z,101173.45
2022-08-31T15:28:18.748Z,101173.18
2022-08-31T15:31:02.200Z,101170.21
2022-08-31T15:33:49.472Z,101176.58
2022-08-31T15:36:32.964Z,101174.48
2022-08-31T15:39:15.241Z,101174.50
2022-08-31T15:41:57.780Z,101175.83
2022-08-31T15:44:41.318Z,101169.22
2022-08-31T15:47:51.007Z,101166.43
2022-08-31T15:50:36.194Z,101165.77
2022-08-31T15:53:25.980Z,101162.41
2022-08-31T15:56:09.711Z,101164.98
2022-08-31T15:58:58.775Z,101166.20
2022-08-31T16:01:40.749Z,101161.93
2022-08-31T16:04:25.276Z,101163.73
2022-08-31T16:07:08.250Z,101159.08
2022-08-31T16:09:50.147Z,101159.38
2022-08-31T16:12:32.860Z,101155.97
2022-08-31T16:15:15.883Z,101155.25
2022-08-31T16:17:57.867Z,101155.61
2022-08-31T16:20:39.731Z,101157.55
2022-08-31T16:23:21.672Z,101157.58
2022-08-31T16:26:05.448Z,101153.96
2022-08-31T16:28:47.409Z,101149.34
2022-08-31T16:31:30.824Z,101151.13
2022-08-31T16:34:13.965Z,101152.27
2022-08-31T16:36:57.295Z,101151.91
2022-08-31T16:39:44.659Z,101151.12
2022-08-31T16:42:26.717Z,101150.85
2022-08-31T16:45:10.774Z,101149.19
2022-08-31T16:48:12.896Z,101146.27
2022-08-31T16:50:54.831Z,101143.40
2022-08-31T16:53:36.727Z,101146.66
2022-08-31T16:56:20.704Z,101147.70
2022-08-31T16:59:02.613Z,101150.35
2022-08-31T17:01:46.136Z,101152.33
2022-08-31T17:04:50.922Z,101150.80
2022-08-31T17:07:30.986Z,101152.61
2022-08-31T17:10:12.984Z,101158.05
2022-08-31T17:12:55.802Z,101160.88
2022-08-31T17:15:37.744Z,101165.23
2022-08-31T17:18:25.122Z,101168.86
2022-08-31T17:21:07.271Z,101170.20
2022-08-31T17:23:51.409Z,101171.33
2022-08-31T17:26:34.905Z,101172.14
2022-08-31T17:29:18.587Z,101171.88
2022-08-31T17:32:04.534Z,101176.73
2022-08-31T17:34:51.355Z,101174.42
2022-08-31T17:37:36.621Z,101176.65
2022-08-31T17:40:18.988Z,101174.66
2022-08-31T17:43:01.893Z,101174.33
2022-08-31T17:45:43.688Z,101181.67
2022-08-31T17:48:25.741Z,101181.41
2022-08-31T17:51:17.287Z,101177.56
2022-08-31T17:54:12.609Z,101184.53
2022-08-31T17:56:56.212Z,101186.91
2022-08-31T17:59:40.767Z,101187.10
2022-08-31T18:02:27.757Z,101193.27
2022-08-31T18:05:11.984Z,101197.02
2022-08-31T18:07:54.339Z,101198.23
2022-08-31T18:10:36.540Z,101198.48
2022-08-31T18:13:24.395Z,101201.23
2022-08-31T18:16:09.491Z,101205.45
2022-08-31T18:18:51.607Z,101208.24
2022-08-31T18:21:33.646Z,101208.92
2022-08-31T18:24:15.789Z,101209.75
2022-08-31T18:26:59.383Z,101214.86
2022-08-31T18:29:42.818Z,101214.77
2022-08-31T18:32:31.573Z,101218.85
2022-08-31T18:35:17.813Z,101214.67
2022-08-31T18:38:04.786Z,101211.27
2022-08-31T18:41:10.743Z,101216.78
2022-08-31T18:44:12.300Z,101219.89
2022-08-31T18:46:58.261Z,101221.92
2022-08-31T18:49:42.113Z,101227.10
2022-08-31T18:52:26.312Z,101225.94
2022-08-31T18:55:09.120Z,101223.39
2022-08-31T18:57:51.507Z,101228.94
2022-08-31T19:03:46.121Z,101228.69
2022-08-31T19:06:30.937Z,101231.48
2022-08-31T19:09:14.213Z,101237.32
2022-08-31T19:12:02.562Z,101237.79
2022-08-31T19:14:44.982Z,101235.81
2022-08-31T19:17:27.272Z,101234.10
2022-08-31T19:20:10.759Z,101234.23
2022-08-31T19:22:53.932Z,101242.38
2022-08-31T19:25:42.721Z,101238.59
2022-08-31T19:28:24.892Z,101241.14
2022-08-31T19:31:10.028Z,101238.89
2022-08-31T19:33:57.350Z,101236.92
2022-08-31T19:36:42.252Z,101237.67
2022-08-31T19:39:28.049Z,101236.11
2022-08-31T19:42:11.630Z,101234.91
2022-08-31T19:45:22.696Z,101231.98
2022-08-31T19:48:01.273Z,101233.32
2022-08-31T19:50:43.629Z,101235.02
2022-08-31T19:53:26.072Z,101236.71
2022-08-31T19:56:10.785Z,101231.89
2022-08-31T19:58:56.739Z,101234.30
2022-08-31T20:01:41.852Z,101236.19
2022-08-31T20:04:28.062Z,101235.27
2022-08-31T20:07:11.076Z,101235.39
2022-08-31T20:09:53.846Z,101240.31
2022-08-31T20:12:36.253Z,101237.17
2022-08-31T20:15:18.883Z,101242.64
2022-08-31T20:18:01.173Z,101247.29
2022-08-31T20:20:45.997Z,101249.45
2022-08-31T20:23:30.595Z,101251.96
2022-08-31T20:26:12.592Z,101255.16
2022-08-31T20:28:58.153Z,101254.61
2022-08-31T20:31:43.291Z,101262.52
2022-08-31T20:34:28.174Z,101258.65
2022-08-31T20:37:10.928Z,101256.23
2022-08-31T20:39:53.754Z,101256.58
2022-08-31T20:42:37.577Z,101256.25
2022-08-31T20:45:19.687Z,101258.50
2022-08-31T20:48:20.527Z,101263.14
2022-08-31T20:51:16.499Z,101260.77
2022-08-31T20:53:58.348Z,101262.62
2022-08-31T20:56:40.550Z,101262.14
2022-08-31T20:59:24.644Z,101262.27
2022-08-31T21:02:07.789Z,101261.33
2022-08-31T21:04:51.104Z,101263.31
2022-08-31T21:07:36.428Z,101267.30
2022-08-31T21:10:36.674Z,101269.45
2022-08-31T21:13:19.329Z,101274.63
2022-08-31T21:16:03.885Z,101273.98
2022-08-31T21:18:49.484Z,101279.55
2022-08-31T21:21:31.405Z,101282.30
2022-08-31T21:24:18.112Z,101285.34
2022-08-31T21:27:01.796Z,101284.86
2022-08-31T21:29:50.710Z,101287.05
2022-08-31T21:32:33.015Z,101288.23
2022-08-31T21:35:15.591Z,101286.58
2022-08-31T21:37:59.084Z,101288.79
2022-08-31T21:40:50.501Z,101287.27
2022-08-31T21:43:32.621Z,101284.79
2022-08-31T21:46:17.989Z,101284.16
2022-08-31T21:49:01.695Z,101284.18
2022-08-31T21:51:46.151Z,101282.23
2022-08-31T21:54:29.277Z,101285.41
2022-08-31T21:57:13.016Z,101280.77
2022-08-31T21:59:54.910Z,101281.01
2022-08-31T22:02:36.831Z,101273.64
2022-08-31T22:05:18.701Z,101275.70
2022-08-31T22:08:01.827Z,101278.05
2022-08-31T22:10:44.848Z,101274.83
2022-08-31T22:13:26.847Z,101273.73
2022-08-31T22:16:19.349Z,101275.54
2022-08-31T22:19:02.795Z,101274.02
2022-08-31T22:21:49.455Z,101271.18
2022-08-31T22:24:33.981Z,101271.64
2022-08-31T22:27:15.819Z,101272.62
2022-08-31T22:29:57.678Z,101269.59
2022-08-31T22:32:39.675Z,101270.98
2022-08-31T22:35:22.187Z,101268.54
2022-08-31T22:38:04.080Z,101270.91
2022-08-31T22:40:50.324Z,101270.39
2022-08-31T22:43:32.480Z,101274.02
2022-08-31T22:46:19.282Z,101271.39
2022-08-31T22:49:02.210Z,101272.13
2022-08-31T22:51:48.606Z,101272.12
2022-08-31T22:54:30.964Z,101271.23
2022-08-31T22:57:12.919Z,101272.61
2022-08-31T22:59:54.965Z,101273.22
2022-08-31T23:02:45.419Z,101273.04
2022-08-31T23:05:27.513Z,101275.98
2022-08-31T23:08:11.260Z,101275.67
2022-08-31T23:10:53.195Z,101271.35
2022-08-31T23:13:55.732Z,101272.52
2022-08-31T23:16:44.689Z,101272.08
2022-08-31T23:19:35.492Z,101270.48
2022-08-31T23:22:17.798Z,101279.07
2022-08-31T23:25:05.223Z,101277.52
2022-08-31T23:27:49.205Z,101274.06
2022-08-31T23:30:31.166Z,101268.31
2022-08-31T23:33:13.061Z,101269.77
2022-08-31T23:35:56.390Z,101268.11
2022-08-31T23:38:39.925Z,101270.96
2022-08-31T23:41:30.216Z,101270.09
2022-08-31T23:44:13.547Z,101270.44
2022-08-31T23:46:55.443Z,101274.42
2022-08-31T23:49:37.645Z,101275.15
2022-08-31T23:52:22.715Z,101274.99
2022-08-31T23:55:07.185Z,101274.60
2022-08-31T23:57:50.203Z,101268.51
